Linzy — SIRU — position and weather

sailwx.info

Track history (hours):
 
Tides and Currents Weather Stations Pressure Air Temp Water Temp Dewpoint Dewpoint Depression Visibility Wind Speed Wind Dir Waves Ship Positions

Linzy

Last reported at 2015-Aug-02 07:33 UTC. Time now 2015-Aug-02 08:19 UTC.
Position N 55°08' E 014°36'.

Length 15 m.

Type: Fishing. MMSI: 265507290.

Date/timePositionNaut miles runAvg speedWind from/ knotsBaromVisibWave heightAir tempDewpointWater temp
2015-Aug-02 07:33N 55°08' E 014°36'3 2.9
2015-Aug-02 06:33N 55°10' E 014°37'3 3.1
2015-Aug-02 05:33N 55°14' E 014°37'3 3.1
2015-Aug-02 04:33N 55°17' E 014°36'7 6.6
2015-Aug-02 03:33N 55°23' E 014°31'8 8.3
2015-Aug-02 02:33N 55°30' E 014°25'4 1.8
2015-Aug-02 00:25N 55°33' E 014°22'0 0.0
2015-Aug-01 23:25N 55°33' E 014°22'0 0.0
2015-Aug-01 22:31N 55°33' E 014°22'0 0.0
2015-Aug-01 21:31N 55°33' E 014°22'0 0.0
2015-Aug-01 19:25N 55°33' E 014°22'0 0.0
2015-Aug-01 18:19N 55°33' E 014°22'0 0.0
2015-Aug-01 17:31N 55°33' E 014°22'0 0.0
2015-Aug-01 16:31N 55°33' E 014°22'0 0.0
2015-Aug-01 15:31N 55°33' E 014°22'0 0.0
2015-Aug-01 14:31N 55°33' E 014°22'0 0.0
2015-Aug-01 13:25N 55°33' E 014°22'0 0.0
2015-Aug-01 12:31N 55°33' E 014°22'0 0.0
2015-Aug-01 11:31N 55°33' E 014°22'0 0.0
2015-Aug-01 10:31N 55°33' E 014°22'0 0.0
2015-Aug-01 09:31N 55°33' E 014°22'0 0.0
2015-Aug-01 08:31N 55°33' E 014°22'0 0.0
2015-Aug-01 07:31N 55°33' E 014°22'0 0.0
2015-Aug-01 06:31N 55°33' E 014°22'0 0.0
2015-Aug-01 05:19N 55°33' E 014°22'0 0.0
2015-Aug-01 04:19N 55°33' E 014°22'0 0.0
2015-Aug-01 03:31N 55°33' E 014°22'0 0.0
2015-Aug-01 02:31N 55°33' E 014°22'0 0.0
2015-Aug-01 00:25N 55°33' E 014°22'0 0.0
2015-Jul-31 23:31N 55°33' E 014°22'0 0.0
2015-Jul-31 22:25N 55°33' E 014°22'0 0.0
2015-Jul-31 21:25N 55°33' E 014°22'0 0.0
2015-Jul-31 20:25N 55°33' E 014°22'0 0.0
2015-Jul-31 19:31N 55°33' E 014°22'0 0.0
2015-Jul-31 18:31N 55°33' E 014°22'0 0.0
2015-Jul-31 17:25N 55°33' E 014°22'0 0.0
2015-Jul-31 16:31N 55°33' E 014°22'0 0.0
2015-Jul-31 15:31N 55°33' E 014°22'0 0.0
2015-Jul-31 14:31N 55°33' E 014°22'0 0.0
2015-Jul-31 13:31N 55°33' E 014°22'0 0.0
2015-Jul-31 12:25N 55°33' E 014°22'0 0.0
2015-Jul-31 11:31N 55°33' E 014°22'0 0.0
2015-Jul-31 10:31N 55°33' E 014°22'0 0.0
2015-Jul-31 09:25N 55°33' E 014°22'0 0.0
2015-Jul-31 08:31N 55°33' E 014°22'0 0.0
2015-Jul-31 07:19N 55°33' E 014°22'0 0.0
2015-Jul-31 06:31N 55°33' E 014°22'0 0.0
2015-Jul-31 05:13N 55°33' E 014°22'0 0.0
2015-Jul-31 04:19N 55°33' E 014°22'0 0.0
2015-Jul-31 03:31N 55°33' E 014°22'0 0.0
2015-Jul-31 02:31N 55°33' E 014°22'0 0.0
2015-Jul-31 01:31N 55°33' E 014°22'0 0.0
2015-Jul-31 00:31N 55°33' E 014°22'0 0.0
2015-Jul-30 23:31N 55°33' E 014°22'0 0.0
2015-Jul-30 22:31N 55°33' E 014°22'0 0.0
2015-Jul-30 20:25N 55°33' E 014°22'0 0.0
2015-Jul-30 19:07N 55°33' E 014°22'0 0.0
2015-Jul-30 18:31N 55°33' E 014°22'0 0.0
2015-Jul-30 17:31N 55°33' E 014°22'0 0.0
2015-Jul-30 16:25N 55°33' E 014°22'0 0.0
2015-Jul-30 15:31N 55°33' E 014°22'0 0.0
2015-Jul-30 14:31N 55°33' E 014°22'0 0.0
2015-Jul-30 13:31N 55°33' E 014°22'0 0.0
2015-Jul-30 12:31N 55°33' E 014°22'0 0.0
2015-Jul-30 11:31N 55°33' E 014°22'0 0.0
2015-Jul-30 09:31N 55°33' E 014°22'0 0.0
2015-Jul-30 08:31N 55°33' E 014°22'0 0.0
2015-Jul-30 07:25N 55°33' E 014°22'0 0.0
2015-Jul-30 06:31N 55°33' E 014°22'0 0.0
2015-Jul-30 04:31N 55°33' E 014°22'0 0.0
2015-Jul-30 03:31N 55°33' E 014°22'0 0.0
2015-Jul-30 02:31N 55°33' E 014°22'0 0.0
2015-Jul-30 00:31N 55°33' E 014°22'0 0.0
2015-Jul-29 23:31N 55°33' E 014°22'0 0.0
2015-Jul-29 22:31N 55°33' E 014°22'0 0.0
2015-Jul-29 21:25N 55°33' E 014°22'0 0.0
2015-Jul-29 20:31N 55°33' E 014°22'0 0.0
2015-Jul-29 19:31N 55°33' E 014°22'0 0.0
2015-Jul-29 18:31N 55°33' E 014°22'0 0.0
2015-Jul-29 17:31N 55°33' E 014°22'0 0.0
2015-Jul-29 16:31N 55°33' E 014°22'0 0.0
2015-Jul-29 15:13N 55°33' E 014°22'0 0.0
2015-Jul-29 14:31N 55°33' E 014°22'0 0.0
2015-Jul-29 13:19N 55°33' E 014°22'0 0.0
2015-Jul-29 12:19N 55°33' E 014°22'0 0.0
2015-Jul-29 11:19N 55°33' E 014°22'0 0.0
2015-Jul-29 10:31N 55°33' E 014°22'0 0.0
2015-Jul-29 09:19N 55°33' E 014°22'0 0.0
2015-Jul-29 08:31N 55°33' E 014°22'0 0.0
2015-Jul-29 07:25N 55°33' E 014°22'0 0.0
2015-Jul-29 06:19N 55°33' E 014°22'0 0.0
2015-Jul-29 05:19N 55°33' E 014°22'0 0.0
2015-Jul-29 03:25N 55°33' E 014°22'0 0.0
2015-Jul-29 02:31N 55°33' E 014°22'0 0.0
2015-Jul-29 00:31N 55°33' E 014°22'0 0.0
2015-Jul-28 23:31N 55°33' E 014°22'0 0.0
2015-Jul-28 22:31N 55°33' E 014°22'0 0.0
2015-Jul-28 21:25N 55°33' E 014°22'0 0.0
2015-Jul-28 20:19N 55°33' E 014°22'0 0.0
2015-Jul-28 19:25N 55°33' E 014°22'0 0.0
2015-Jul-28 18:31N 55°33' E 014°22'0 0.0
2015-Jul-28 17:25N 55°33' E 014°22'0 0.0
2015-Jul-28 16:31N 55°33' E 014°22'0 0.0
2015-Jul-28 15:25N 55°33' E 014°22'0 0.0
2015-Jul-28 14:31N 55°33' E 014°22'0 0.0
2015-Jul-28 13:25N 55°33' E 014°22'0 0.0
2015-Jul-28 12:31N 55°33' E 014°22'0 0.0
2015-Jul-28 11:31N 55°33' E 014°22'0 0.0
2015-Jul-28 09:19N 55°33' E 014°22'0 0.0
2015-Jul-28 07:07N 55°33' E 014°22'0 0.0
2015-Jul-28 05:25N 55°33' E 014°22'0 0.0
2015-Jul-28 04:19N 55°33' E 014°22'0 0.0
2015-Jul-27 22:13N 55°33' E 014°22'0 0.0
2015-Jul-27 20:26N 55°33' E 014°22'0 0.0
2015-Jul-27 19:26N 55°33' E 014°22'0 0.0
2015-Jul-27 17:32N 55°33' E 014°22'0 0.0
2015-Jul-27 16:32N 55°33' E 014°22'0 0.0
2015-Jul-27 13:26N 55°33' E 014°22'10 5.3
2015-Jul-27 11:31N 55°24' E 014°27'7 7.5
2015-Jul-27 10:32N 55°17' E 014°32'7 7.4
2015-Jul-27 09:33N 55°10' E 014°34'3 2.9
2015-Jul-27 08:33N 55°07' E 014°35'3 2.6
2015-Jul-27 07:33N 55°09' E 014°36'3 2.8
2015-Jul-27 06:33N 55°12' E 014°37'3 2.8
2015-Jul-27 05:33N 55°15' E 014°37'3 3.0
2015-Jul-27 04:33N 55°18' E 014°35'8 7.6
2015-Jul-27 03:34N 55°25' E 014°29'8 7.9
2015-Jul-27 02:33N 55°32' E 014°23'2 0.8
2015-Jul-27 00:31N 55°33' E 014°22'0 0.0
2015-Jul-26 23:31N 55°33' E 014°22'0 0.0
2015-Jul-26 22:31N 55°33' E 014°22'0 0.0
2015-Jul-26 21:31N 55°33' E 014°22'0 0.0
2015-Jul-26 20:31N 55°33' E 014°22'0 0.0
2015-Jul-26 19:25N 55°33' E 014°22'0 0.0
2015-Jul-26 18:31N 55°33' E 014°22'0 0.0
2015-Jul-26 17:31N 55°33' E 014°22'0 0.0
2015-Jul-26 16:25N 55°33' E 014°22'0 0.0
2015-Jul-26 15:25N 55°33' E 014°22'0 0.0
2015-Jul-26 14:31N 55°33' E 014°22'0 0.0
2015-Jul-26 13:31N 55°33' E 014°22'0 0.0
2015-Jul-26 12:19N 55°33' E 014°22'0 0.0
2015-Jul-26 11:31N 55°33' E 014°22'0 0.0
2015-Jul-26 10:31N 55°33' E 014°22'0 0.0
2015-Jul-26 09:31N 55°33' E 014°22'0 0.0
2015-Jul-26 08:19N 55°33' E 014°22'0 0.0
2015-Jul-26 07:31N 55°33' E 014°22'0 0.0
2015-Jul-26 06:31N 55°33' E 014°22'0 0.0
2015-Jul-26 05:31N 55°33' E 014°22'0 0.0
2015-Jul-26 04:31N 55°33' E 014°22'0 0.0
2015-Jul-26 03:31N 55°33' E 014°22'0 0.0
2015-Jul-26 02:31N 55°33' E 014°22'0 0.0
2015-Jul-26 00:31N 55°33' E 014°22'0 0.0
2015-Jul-25 23:31N 55°33' E 014°22'0 0.0
2015-Jul-25 22:31N 55°33' E 014°22'0 0.0
2015-Jul-25 21:31N 55°33' E 014°22'0 0.0
2015-Jul-25 19:31N 55°33' E 014°22'0 0.0
2015-Jul-25 18:25N 55°33' E 014°22'0 0.0
2015-Jul-25 17:31N 55°33' E 014°22'0 0.0
2015-Jul-25 16:31N 55°33' E 014°22'0 0.0
2015-Jul-25 15:31N 55°33' E 014°22'0 0.0
2015-Jul-25 14:31N 55°33' E 014°22'0 0.0
2015-Jul-25 12:25N 55°33' E 014°22'0 0.0
2015-Jul-25 11:31N 55°33' E 014°22'0 0.0
2015-Jul-25 10:31N 55°33' E 014°22'0 0.0
2015-Jul-25 09:19N 55°33' E 014°22'0 0.0
2015-Jul-25 08:31N 55°33' E 014°22'0 0.0
2015-Jul-25 07:31N 55°33' E 014°22'0 0.0
2015-Jul-25 06:31N 55°33' E 014°22'0 0.0
2015-Jul-25 05:31N 55°33' E 014°22'0 0.0
2015-Jul-25 04:31N 55°33' E 014°22'0 0.0
2015-Jul-25 00:25N 55°33' E 014°22'0 0.0
2015-Jul-24 23:31N 55°33' E 014°22'0 0.0
2015-Jul-24 22:31N 55°33' E 014°22'0 0.0
2015-Jul-24 21:25N 55°33' E 014°22'0 0.0
2015-Jul-24 20:32N 55°33' E 014°22'0 0.0
2015-Jul-24 19:31N 55°33' E 014°22'0 0.0
2015-Jul-24 18:31N 55°33' E 014°22'0 0.0
2015-Jul-24 17:25N 55°33' E 014°22'0 0.0
2015-Jul-24 16:33N 55°33' E 014°22'7 7.0
2015-Jul-24 15:31N 55°29' E 014°31'8 7.6
2015-Jul-24 14:28N 55°22' E 014°40'  
Track history (hours):
 
Tides and Currents Weather Stations Pressure Air Temp Water Temp Dewpoint Dewpoint Depression Visibility Wind Speed Wind Dir Waves Ship Positions

Linzy

Last reported at 2015-Aug-02 07:33 UTC. Time now 2015-Aug-02 08:19 UTC.
Position N 55°08' E 014°36'.

Length 15 m.

Type: Fishing. MMSI: 265507290.

Date/timePositionNaut miles runAvg speedWind from/ knotsBaromVisibWave heightAir tempDewpointWater temp
2015-Aug-02 07:33N 55°08' E 014°36'3 2.9
2015-Aug-02 06:33N 55°10' E 014°37'3 3.1
2015-Aug-02 05:33N 55°14' E 014°37'3 3.1
2015-Aug-02 04:33N 55°17' E 014°36'7 6.6
2015-Aug-02 03:33N 55°23' E 014°31'8 8.3
2015-Aug-02 02:33N 55°30' E 014°25'4 1.8
2015-Aug-02 00:25N 55°33' E 014°22'0 0.0
2015-Aug-01 23:25N 55°33' E 014°22'0 0.0
2015-Aug-01 22:31N 55°33' E 014°22'0 0.0
2015-Aug-01 21:31N 55°33' E 014°22'0 0.0
2015-Aug-01 19:25N 55°33' E 014°22'0 0.0
2015-Aug-01 18:19N 55°33' E 014°22'0 0.0
2015-Aug-01 17:31N 55°33' E 014°22'0 0.0
2015-Aug-01 16:31N 55°33' E 014°22'0 0.0
2015-Aug-01 15:31N 55°33' E 014°22'0 0.0
2015-Aug-01 14:31N 55°33' E 014°22'0 0.0
2015-Aug-01 13:25N 55°33' E 014°22'0 0.0
2015-Aug-01 12:31N 55°33' E 014°22'0 0.0
2015-Aug-01 11:31N 55°33' E 014°22'0 0.0
2015-Aug-01 10:31N 55°33' E 014°22'0 0.0
2015-Aug-01 09:31N 55°33' E 014°22'0 0.0
2015-Aug-01 08:31N 55°33' E 014°22'0 0.0
2015-Aug-01 07:31N 55°33' E 014°22'0 0.0
2015-Aug-01 06:31N 55°33' E 014°22'0 0.0
2015-Aug-01 05:19N 55°33' E 014°22'0 0.0
2015-Aug-01 04:19N 55°33' E 014°22'0 0.0
2015-Aug-01 03:31N 55°33' E 014°22'0 0.0
2015-Aug-01 02:31N 55°33' E 014°22'0 0.0
2015-Aug-01 00:25N 55°33' E 014°22'0 0.0
2015-Jul-31 23:31N 55°33' E 014°22'0 0.0
2015-Jul-31 22:25N 55°33' E 014°22'0 0.0
2015-Jul-31 21:25N 55°33' E 014°22'0 0.0
2015-Jul-31 20:25N 55°33' E 014°22'0 0.0
2015-Jul-31 19:31N 55°33' E 014°22'0 0.0
2015-Jul-31 18:31N 55°33' E 014°22'0 0.0
2015-Jul-31 17:25N 55°33' E 014°22'0 0.0
2015-Jul-31 16:31N 55°33' E 014°22'0 0.0
2015-Jul-31 15:31N 55°33' E 014°22'0 0.0
2015-Jul-31 14:31N 55°33' E 014°22'0 0.0
2015-Jul-31 13:31N 55°33' E 014°22'0 0.0
2015-Jul-31 12:25N 55°33' E 014°22'0 0.0
2015-Jul-31 11:31N 55°33' E 014°22'0 0.0
2015-Jul-31 10:31N 55°33' E 014°22'0 0.0
2015-Jul-31 09:25N 55°33' E 014°22'0 0.0
2015-Jul-31 08:31N 55°33' E 014°22'0 0.0
2015-Jul-31 07:19N 55°33' E 014°22'0 0.0
2015-Jul-31 06:31N 55°33' E 014°22'0 0.0
2015-Jul-31 05:13N 55°33' E 014°22'0 0.0
2015-Jul-31 04:19N 55°33' E 014°22'0 0.0
2015-Jul-31 03:31N 55°33' E 014°22'0 0.0
2015-Jul-31 02:31N 55°33' E 014°22'0 0.0
2015-Jul-31 01:31N 55°33' E 014°22'0 0.0
2015-Jul-31 00:31N 55°33' E 014°22'0 0.0
2015-Jul-30 23:31N 55°33' E 014°22'0 0.0
2015-Jul-30 22:31N 55°33' E 014°22'0 0.0
2015-Jul-30 20:25N 55°33' E 014°22'0 0.0
2015-Jul-30 19:07N 55°33' E 014°22'0 0.0
2015-Jul-30 18:31N 55°33' E 014°22'0 0.0
2015-Jul-30 17:31N 55°33' E 014°22'0 0.0
2015-Jul-30 16:25N 55°33' E 014°22'0 0.0
2015-Jul-30 15:31N 55°33' E 014°22'0 0.0
2015-Jul-30 14:31N 55°33' E 014°22'0 0.0
2015-Jul-30 13:31N 55°33' E 014°22'0 0.0
2015-Jul-30 12:31N 55°33' E 014°22'0 0.0
2015-Jul-30 11:31N 55°33' E 014°22'0 0.0
2015-Jul-30 09:31N 55°33' E 014°22'0 0.0
2015-Jul-30 08:31N 55°33' E 014°22'0 0.0
2015-Jul-30 07:25N 55°33' E 014°22'0 0.0
2015-Jul-30 06:31N 55°33' E 014°22'0 0.0
2015-Jul-30 04:31N 55°33' E 014°22'0 0.0
2015-Jul-30 03:31N 55°33' E 014°22'0 0.0
2015-Jul-30 02:31N 55°33' E 014°22'0 0.0
2015-Jul-30 00:31N 55°33' E 014°22'0 0.0
2015-Jul-29 23:31N 55°33' E 014°22'0 0.0
2015-Jul-29 22:31N 55°33' E 014°22'0 0.0
2015-Jul-29 21:25N 55°33' E 014°22'0 0.0
2015-Jul-29 20:31N 55°33' E 014°22'0 0.0
2015-Jul-29 19:31N 55°33' E 014°22'0 0.0
2015-Jul-29 18:31N 55°33' E 014°22'0 0.0
2015-Jul-29 17:31N 55°33' E 014°22'0 0.0
2015-Jul-29 16:31N 55°33' E 014°22'0 0.0
2015-Jul-29 15:13N 55°33' E 014°22'0 0.0
2015-Jul-29 14:31N 55°33' E 014°22'0 0.0
2015-Jul-29 13:19N 55°33' E 014°22'0 0.0
2015-Jul-29 12:19N 55°33' E 014°22'0 0.0
2015-Jul-29 11:19N 55°33' E 014°22'0 0.0
2015-Jul-29 10:31N 55°33' E 014°22'0 0.0
2015-Jul-29 09:19N 55°33' E 014°22'0 0.0
2015-Jul-29 08:31N 55°33' E 014°22'0 0.0
2015-Jul-29 07:25N 55°33' E 014°22'0 0.0
2015-Jul-29 06:19N 55°33' E 014°22'0 0.0
2015-Jul-29 05:19N 55°33' E 014°22'0 0.0
2015-Jul-29 03:25N 55°33' E 014°22'0 0.0
2015-Jul-29 02:31N 55°33' E 014°22'0 0.0
2015-Jul-29 00:31N 55°33' E 014°22'0 0.0
2015-Jul-28 23:31N 55°33' E 014°22'0 0.0
2015-Jul-28 22:31N 55°33' E 014°22'0 0.0
2015-Jul-28 21:25N 55°33' E 014°22'0 0.0
2015-Jul-28 20:19N 55°33' E 014°22'0 0.0
2015-Jul-28 19:25N 55°33' E 014°22'0 0.0
2015-Jul-28 18:31N 55°33' E 014°22'0 0.0
2015-Jul-28 17:25N 55°33' E 014°22'0 0.0
2015-Jul-28 16:31N 55°33' E 014°22'0 0.0
2015-Jul-28 15:25N 55°33' E 014°22'0 0.0
2015-Jul-28 14:31N 55°33' E 014°22'0 0.0
2015-Jul-28 13:25N 55°33' E 014°22'0 0.0
2015-Jul-28 12:31N 55°33' E 014°22'0 0.0
2015-Jul-28 11:31N 55°33' E 014°22'0 0.0
2015-Jul-28 09:19N 55°33' E 014°22'0 0.0
2015-Jul-28 07:07N 55°33' E 014°22'0 0.0
2015-Jul-28 05:25N 55°33' E 014°22'0 0.0
2015-Jul-28 04:19N 55°33' E 014°22'0 0.0
2015-Jul-27 22:13N 55°33' E 014°22'0 0.0
2015-Jul-27 20:26N 55°33' E 014°22'0 0.0
2015-Jul-27 19:26N 55°33' E 014°22'0 0.0
2015-Jul-27 17:32N 55°33' E 014°22'0 0.0
2015-Jul-27 16:32N 55°33' E 014°22'0 0.0
2015-Jul-27 13:26N 55°33' E 014°22'10 5.3
2015-Jul-27 11:31N 55°24' E 014°27'7 7.5
2015-Jul-27 10:32N 55°17' E 014°32'7 7.4
2015-Jul-27 09:33N 55°10' E 014°34'3 2.9
2015-Jul-27 08:33N 55°07' E 014°35'3 2.6
2015-Jul-27 07:33N 55°09' E 014°36'3 2.8
2015-Jul-27 06:33N 55°12' E 014°37'3 2.8
2015-Jul-27 05:33N 55°15' E 014°37'3 3.0
2015-Jul-27 04:33N 55°18' E 014°35'8 7.6
2015-Jul-27 03:34N 55°25' E 014°29'8 7.9
2015-Jul-27 02:33N 55°32' E 014°23'2 0.8
2015-Jul-27 00:31N 55°33' E 014°22'0 0.0
2015-Jul-26 23:31N 55°33' E 014°22'0 0.0
2015-Jul-26 22:31N 55°33' E 014°22'0 0.0
2015-Jul-26 21:31N 55°33' E 014°22'0 0.0
2015-Jul-26 20:31N 55°33' E 014°22'0 0.0
2015-Jul-26 19:25N 55°33' E 014°22'0 0.0
2015-Jul-26 18:31N 55°33' E 014°22'0 0.0
2015-Jul-26 17:31N 55°33' E 014°22'0 0.0
2015-Jul-26 16:25N 55°33' E 014°22'0 0.0
2015-Jul-26 15:25N 55°33' E 014°22'0 0.0
2015-Jul-26 14:31N 55°33' E 014°22'0 0.0
2015-Jul-26 13:31N 55°33' E 014°22'0 0.0
2015-Jul-26 12:19N 55°33' E 014°22'0 0.0
2015-Jul-26 11:31N 55°33' E 014°22'0 0.0
2015-Jul-26 10:31N 55°33' E 014°22'0 0.0
2015-Jul-26 09:31N 55°33' E 014°22'0 0.0
2015-Jul-26 08:19N 55°33' E 014°22'0 0.0
2015-Jul-26 07:31N 55°33' E 014°22'0 0.0
2015-Jul-26 06:31N 55°33' E 014°22'0 0.0
2015-Jul-26 05:31N 55°33' E 014°22'0 0.0
2015-Jul-26 04:31N 55°33' E 014°22'0 0.0
2015-Jul-26 03:31N 55°33' E 014°22'0 0.0
2015-Jul-26 02:31N 55°33' E 014°22'0 0.0
2015-Jul-26 00:31N 55°33' E 014°22'0 0.0
2015-Jul-25 23:31N 55°33' E 014°22'0 0.0
2015-Jul-25 22:31N 55°33' E 014°22'0 0.0
2015-Jul-25 21:31N 55°33' E 014°22'0 0.0
2015-Jul-25 19:31N 55°33' E 014°22'0 0.0
2015-Jul-25 18:25N 55°33' E 014°22'0 0.0
2015-Jul-25 17:31N 55°33' E 014°22'0 0.0
2015-Jul-25 16:31N 55°33' E 014°22'0 0.0
2015-Jul-25 15:31N 55°33' E 014°22'0 0.0
2015-Jul-25 14:31N 55°33' E 014°22'0 0.0
2015-Jul-25 12:25N 55°33' E 014°22'0 0.0
2015-Jul-25 11:31N 55°33' E 014°22'0 0.0
2015-Jul-25 10:31N 55°33' E 014°22'0 0.0
2015-Jul-25 09:19N 55°33' E 014°22'0 0.0
2015-Jul-25 08:31N 55°33' E 014°22'0 0.0
2015-Jul-25 07:31N 55°33' E 014°22'0 0.0
2015-Jul-25 06:31N 55°33' E 014°22'0 0.0
2015-Jul-25 05:31N 55°33' E 014°22'0 0.0
2015-Jul-25 04:31N 55°33' E 014°22'0 0.0
2015-Jul-25 00:25N 55°33' E 014°22'0 0.0
2015-Jul-24 23:31N 55°33' E 014°22'0 0.0
2015-Jul-24 22:31N 55°33' E 014°22'0 0.0
2015-Jul-24 21:25N 55°33' E 014°22'0 0.0
2015-Jul-24 20:32N 55°33' E 014°22'0 0.0
2015-Jul-24 19:31N 55°33' E 014°22'0 0.0
2015-Jul-24 18:31N 55°33' E 014°22'0 0.0
2015-Jul-24 17:25N 55°33' E 014°22'0 0.0
2015-Jul-24 16:33N 55°33' E 014°22'7 7.0
2015-Jul-24 15:31N 55°29' E 014°31'8 7.6
2015-Jul-24 14:28N 55°22' E 014°40'  

Dump ship's entire track history